createdAt,value
2017-09-15T14:56:09.952Z,20.40
2017-09-15T14:58:39.111Z,20.30
2017-09-15T15:01:08.149Z,20.30
2017-09-15T15:03:36.972Z,20.30
2017-09-15T15:06:05.656Z,20.40
2017-09-15T15:08:35.163Z,20.50
2017-09-15T15:11:03.939Z,20.60
2017-09-15T15:13:32.641Z,20.70
2017-09-15T15:16:07.555Z,20.70
2017-09-15T15:18:36.397Z,20.70
2017-09-15T15:21:05.144Z,20.90
2017-09-15T15:23:40.271Z,22.00
2017-09-15T15:26:09.037Z,23.10
2017-09-15T15:28:44.043Z,23.30
2017-09-15T15:31:12.752Z,23.50
2017-09-15T15:33:41.453Z,24.00
2017-09-15T15:36:10.139Z,24.30
2017-09-15T15:38:44.987Z,24.40
2017-09-15T15:41:13.663Z,24.70
2017-09-15T15:43:42.344Z,25.00
2017-09-15T15:46:11.031Z,25.30
2017-09-15T15:48:39.716Z,25.90
2017-09-15T15:51:14.659Z,26.60
2017-09-15T15:53:49.458Z,27.20
2017-09-15T15:56:26.229Z,27.10
2017-09-15T15:58:54.955Z,26.90
2017-09-15T16:01:35.011Z,26.80
2017-09-15T16:04:03.700Z,26.30
2017-09-15T16:06:32.378Z,26.10
2017-09-15T16:09:03.019Z,25.80
2017-09-15T16:11:32.830Z,25.90
2017-09-15T16:14:01.731Z,26.00
2017-09-15T16:16:36.805Z,26.40
2017-09-15T16:19:06.487Z,26.80
2017-09-15T16:21:36.101Z,27.30
2017-09-15T16:24:04.784Z,27.20
2017-09-15T16:26:34.258Z,27.50
2017-09-15T16:29:09.244Z,27.40
2017-09-15T16:31:39.917Z,27.60
2017-09-15T16:34:14.808Z,27.70
2017-09-15T16:36:43.594Z,27.70
2017-09-15T16:39:22.671Z,27.50
2017-09-15T16:41:57.679Z,27.20
2017-09-15T16:44:31.916Z,27.00
2017-09-15T16:47:06.169Z,26.70
2017-09-15T16:49:34.359Z,26.20
2017-09-15T16:52:03.273Z,25.60
2017-09-15T16:54:31.923Z,25.10
2017-09-15T16:57:01.563Z,24.30
2017-09-15T16:59:37.330Z,22.40
2017-09-15T17:02:06.008Z,22.20
2017-09-15T17:04:34.784Z,21.50
2017-09-15T17:07:11.108Z,20.80
2017-09-15T17:09:41.290Z,19.60
2017-09-15T17:12:17.274Z,19.50
2017-09-15T17:14:46.112Z,19.00
2017-09-15T17:17:14.871Z,18.60
2017-09-15T17:19:44.335Z,17.90
2017-09-15T17:22:13.994Z,17.80
2017-09-15T17:24:49.980Z,17.20
2017-09-15T17:27:18.651Z,17.20
2017-09-15T17:29:56.380Z,17.00
2017-09-15T17:32:27.781Z,16.60
2017-09-15T17:34:56.507Z,16.50
2017-09-15T17:37:28.214Z,16.40
2017-09-15T17:39:56.926Z,16.30
2017-09-15T17:42:27.594Z,16.20
2017-09-15T17:44:56.280Z,16.10
2017-09-15T17:47:25.080Z,15.90
2017-09-15T17:49:54.628Z,15.80
2017-09-15T17:52:24.991Z,15.60
2017-09-15T17:54:59.826Z,15.50
2017-09-15T17:57:28.515Z,15.50
2017-09-15T17:59:57.197Z,15.40
2017-09-15T18:02:26.740Z,15.30
2017-09-15T18:04:55.434Z,15.30
2017-09-15T18:07:24.115Z,15.20
2017-09-15T18:09:52.823Z,15.20
2017-09-15T18:12:21.507Z,15.10
2017-09-15T18:14:50.199Z,15.00
2017-09-15T18:17:18.879Z,15.00
2017-09-15T18:19:48.431Z,14.90
2017-09-15T18:22:17.144Z,14.80
2017-09-15T18:24:45.883Z,14.70
2017-09-15T18:27:15.438Z,14.60
2017-09-15T18:29:44.127Z,14.60
2017-09-15T18:32:19.698Z,14.50
2017-09-15T18:34:48.420Z,14.40
2017-09-15T18:37:17.129Z,14.50
2017-09-15T18:39:46.567Z,14.40
2017-09-15T18:42:15.256Z,14.40
2017-09-15T18:44:50.014Z,14.40
2017-09-15T18:47:20.346Z,14.20
2017-09-15T18:49:49.053Z,14.20
2017-09-15T18:52:18.507Z,14.10
2017-09-15T18:54:48.132Z,14.00
2017-09-15T18:57:23.147Z,14.10
2017-09-15T18:59:58.124Z,14.00
2017-09-15T19:02:26.827Z,14.00
2017-09-15T19:05:01.799Z,14.00
2017-09-15T19:07:37.042Z,14.00
2017-09-15T19:10:11.889Z,14.00
2017-09-15T19:12:46.823Z,13.90
2017-09-15T19:15:15.536Z,13.90
2017-09-15T19:17:45.920Z,13.90
2017-09-15T19:20:21.699Z,13.80
2017-09-15T19:22:50.400Z,13.80
2017-09-15T19:25:26.131Z,13.80
2017-09-15T19:27:55.669Z,13.70
2017-09-15T19:30:24.363Z,13.80
2017-09-15T19:32:59.408Z,13.70
2017-09-15T19:35:32.632Z,13.70
2017-09-15T19:38:07.866Z,13.70
2017-09-15T19:40:37.736Z,13.60
2017-09-15T19:43:07.512Z,13.60
2017-09-15T19:45:37.965Z,13.60
2017-09-15T19:48:07.908Z,13.60
2017-09-15T19:50:44.845Z,13.60
2017-09-15T19:53:14.380Z,13.60
2017-09-15T19:55:43.069Z,13.60
2017-09-15T19:58:19.024Z,13.60
2017-09-15T20:00:49.989Z,13.50
2017-09-15T20:03:19.506Z,13.40
2017-09-15T20:05:50.133Z,13.30
2017-09-15T20:08:34.878Z,13.30
2017-09-15T20:11:03.578Z,13.30
2017-09-15T20:13:34.518Z,13.20
2017-09-15T20:16:05.158Z,13.20
2017-09-15T20:18:34.298Z,13.20
2017-09-15T20:21:03.021Z,13.20
2017-09-15T20:23:32.597Z,13.20
2017-09-15T20:26:03.300Z,13.20
2017-09-15T20:28:32.094Z,13.10
2017-09-15T20:31:00.796Z,13.10
2017-09-15T20:33:35.703Z,13.10
2017-09-15T20:36:05.165Z,13.20
2017-09-15T20:38:34.344Z,13.10
2017-09-15T20:41:06.342Z,13.20
2017-09-15T20:43:35.145Z,13.30
2017-09-15T20:46:09.996Z,13.20
2017-09-15T20:48:39.455Z,13.30
2017-09-15T20:51:08.143Z,13.30
2017-09-15T20:53:37.191Z,13.40
2017-09-15T20:56:14.867Z,13.40
2017-09-15T20:58:44.064Z,13.30
2017-09-15T21:01:13.442Z,13.30
2017-09-15T21:03:49.705Z,13.40
2017-09-15T21:06:18.397Z,13.40
2017-09-15T21:08:54.338Z,13.40
2017-09-15T21:11:23.063Z,13.50
2017-09-15T21:13:52.602Z,13.50
2017-09-15T21:16:34.912Z,13.50
2017-09-15T21:19:03.643Z,13.50
2017-09-15T21:21:32.336Z,13.50
2017-09-15T21:24:01.038Z,13.40
2017-09-15T21:26:38.204Z,13.40
2017-09-15T21:29:13.368Z,13.30
2017-09-15T21:31:45.331Z,13.30
2017-09-15T21:34:38.991Z,13.20
2017-09-15T21:37:20.664Z,13.10
2017-09-15T21:39:49.387Z,13.00
2017-09-15T21:42:18.072Z,13.00
2017-09-15T21:44:59.752Z,13.00
2017-09-15T21:47:28.469Z,13.00
2017-09-15T21:49:57.151Z,13.00
2017-09-15T21:52:25.834Z,13.00
2017-09-15T21:54:58.896Z,13.00
2017-09-15T21:57:27.613Z,13.00
2017-09-15T21:59:56.292Z,12.90
2017-09-15T22:02:24.985Z,12.90
2017-09-15T22:04:53.672Z,12.80
2017-09-15T22:07:23.217Z,12.80
2017-09-15T22:09:51.931Z,12.70
2017-09-15T22:12:20.604Z,12.70
2017-09-15T22:14:49.292Z,12.70
2017-09-15T22:17:17.988Z,12.60
2017-09-15T22:19:48.625Z,12.60
2017-09-15T22:22:17.328Z,12.50
2017-09-15T22:24:46.009Z,12.50
2017-09-15T22:27:20.831Z,12.50
2017-09-15T22:29:51.396Z,12.50
2017-09-15T22:32:20.871Z,12.50
2017-09-15T22:34:49.555Z,12.40
2017-09-15T22:37:18.239Z,12.50
2017-09-15T22:39:46.944Z,12.50
2017-09-15T22:42:15.648Z,12.40
2017-09-15T22:44:47.079Z,12.40
2017-09-15T22:47:16.537Z,12.40
2017-09-15T22:49:45.228Z,12.30
2017-09-15T22:52:13.928Z,12.30
2017-09-15T22:54:42.620Z,12.30
2017-09-15T22:57:12.239Z,12.30
2017-09-15T22:59:40.939Z,12.30
2017-09-15T23:02:10.388Z,12.20
2017-09-15T23:04:45.324Z,12.10
2017-09-15T23:07:14.007Z,12.10
2017-09-15T23:09:42.909Z,12.10
2017-09-15T23:12:11.568Z,12.10
2017-09-15T23:14:42.152Z,12.00
2017-09-15T23:17:11.837Z,12.00
2017-09-15T23:19:40.517Z,11.90
2017-09-15T23:22:09.411Z,11.80
2017-09-15T23:24:38.976Z,11.80
2017-09-15T23:27:07.715Z,11.80
2017-09-15T23:29:42.670Z,11.80
2017-09-15T23:32:14.110Z,11.80
2017-09-15T23:34:42.792Z,11.70
2017-09-15T23:37:11.488Z,11.80
2017-09-15T23:39:46.395Z,11.80
2017-09-15T23:42:15.079Z,11.70
2017-09-15T23:44:43.799Z,11.60
2017-09-15T23:47:13.257Z,11.60
2017-09-15T23:50:00.628Z,11.50
2017-09-15T23:52:30.076Z,11.50
2017-09-15T23:54:58.759Z,11.50
2017-09-15T23:57:33.725Z,11.50
